createdAt,value
2019-03-17T00:02:23.006Z,99663.27
2019-03-17T00:04:57.223Z,99662.80
2019-03-17T00:07:32.030Z,99667.73
2019-03-17T00:10:08.858Z,99665.22
2019-03-17T00:12:40.355Z,99661.55
2019-03-17T00:15:13.838Z,99663.52
2019-03-17T00:17:45.499Z,99673.99
2019-03-17T00:20:20.163Z,99663.93
2019-03-17T00:22:55.316Z,99668.50
2019-03-17T00:25:28.744Z,99674.56
2019-03-17T00:28:03.095Z,99676.55
2019-03-17T00:30:34.855Z,99678.59
2019-03-17T00:33:09.297Z,99674.31
2019-03-17T00:35:44.141Z,99687.81
2019-03-17T00:38:17.744Z,99688.95
2019-03-17T00:40:49.120Z,99685.38
2019-03-17T00:43:20.292Z,99685.86
2019-03-17T00:45:53.340Z,99695.59
2019-03-17T00:48:24.487Z,99694.94
2019-03-17T00:50:56.936Z,99696.02
2019-03-17T00:53:35.507Z,99700.11
2019-03-17T00:56:07.910Z,99706.73
2019-03-17T00:58:49.943Z,99708.77
2019-03-17T01:01:17.970Z,99717.19
2019-03-17T01:03:51.001Z,99725.66
2019-03-17T01:06:23.505Z,99717.50
2019-03-17T01:08:55.672Z,99731.36
2019-03-17T01:11:26.791Z,99733.73
2019-03-17T01:13:58.330Z,99734.90
2019-03-17T01:16:34.094Z,99738.36
2019-03-17T01:19:07.333Z,99735.55
2019-03-17T01:21:41.442Z,99736.52
2019-03-17T01:24:12.643Z,99740.91
2019-03-17T01:26:43.928Z,99741.94
2019-03-17T01:29:15.203Z,99738.48
2019-03-17T01:31:46.373Z,99748.59
2019-03-17T01:34:19.630Z,99749.83
2019-03-17T01:36:50.920Z,99748.52
2019-03-17T01:39:23.153Z,99752.41
2019-03-17T01:41:55.977Z,99749.68
2019-03-17T01:44:27.095Z,99755.53
2019-03-17T01:46:58.358Z,99763.73
2019-03-17T01:49:29.613Z,99765.19
2019-03-17T01:52:00.833Z,99767.88
2019-03-17T01:54:32.202Z,99778.08
2019-03-17T01:57:04.461Z,99777.16
2019-03-17T01:59:35.699Z,99774.55
2019-03-17T02:02:06.841Z,99767.88
2019-03-17T02:04:38.180Z,99769.89
2019-03-17T02:07:11.483Z,99771.01
2019-03-17T02:09:42.785Z,99769.05
2019-03-17T02:12:14.125Z,99778.86
2019-03-17T02:14:45.371Z,99785.94
2019-03-17T02:17:16.662Z,99786.78
2019-03-17T02:19:47.979Z,99788.80
2019-03-17T02:22:22.086Z,99795.22
2019-03-17T02:24:53.242Z,99804.38
2019-03-17T02:27:24.313Z,99801.30
2019-03-17T02:29:55.686Z,99807.27
2019-03-17T02:32:27.140Z,99802.80
2019-03-17T02:34:58.845Z,99811.06
2019-03-17T02:37:30.037Z,99808.95
2019-03-17T02:40:01.333Z,99819.97
2019-03-17T02:42:32.480Z,99819.55
2019-03-17T02:45:03.926Z,99824.93
2019-03-17T02:47:35.280Z,99833.05
2019-03-17T02:50:08.132Z,99831.59
2019-03-17T02:52:39.307Z,99840.70
2019-03-17T02:55:10.396Z,99839.86
2019-03-17T02:57:41.890Z,99849.88
2019-03-17T03:00:13.066Z,99854.76
2019-03-17T03:02:44.304Z,99861.30
2019-03-17T03:05:15.719Z,99863.00
2019-03-17T03:07:46.892Z,99870.00
2019-03-17T03:10:18.110Z,99869.11
2019-03-17T03:12:49.449Z,99874.59
2019-03-17T03:15:20.687Z,99884.03
2019-03-17T03:17:51.922Z,99875.18
2019-03-17T03:20:23.180Z,99886.11
2019-03-17T03:22:54.428Z,99885.78
2019-03-17T03:25:25.771Z,99891.02
2019-03-17T03:27:57.176Z,99897.84
2019-03-17T03:30:28.445Z,99896.86
2019-03-17T03:32:59.816Z,99906.27
2019-03-17T03:35:30.975Z,99912.50
2019-03-17T03:38:02.267Z,99907.13
2019-03-17T03:40:33.579Z,99912.22
2019-03-17T03:43:06.755Z,99907.80
2019-03-17T03:45:38.317Z,99914.72
2019-03-17T03:48:09.503Z,99912.94
2019-03-17T03:50:40.672Z,99923.36
2019-03-17T03:53:12.032Z,99933.52
2019-03-17T03:55:43.362Z,99936.31
2019-03-17T03:58:15.665Z,99928.92
2019-03-17T04:00:46.896Z,99930.08
2019-03-17T04:03:18.117Z,99946.39
2019-03-17T04:05:49.348Z,99944.62
2019-03-17T04:08:20.675Z,99948.77
2019-03-17T04:10:52.174Z,99950.64
2019-03-17T04:13:23.312Z,99959.23
2019-03-17T04:15:55.559Z,99963.80
2019-03-17T04:18:26.733Z,99966.80
2019-03-17T04:20:57.863Z,99971.80
2019-03-17T04:23:29.471Z,99973.34
2019-03-17T04:26:00.670Z,99985.37
2019-03-17T04:28:31.954Z,99983.29
2019-03-17T04:31:03.143Z,99988.52
2019-03-17T04:33:34.420Z,99999.28
2019-03-17T04:36:06.683Z,100004.52
2019-03-17T04:38:37.991Z,100004.69
2019-03-17T04:41:09.197Z,100003.98
2019-03-17T04:43:40.420Z,100009.37
2019-03-17T04:46:11.691Z,100006.82
2019-03-17T04:48:42.916Z,100005.76
2019-03-17T04:51:14.510Z,100010.67
2019-03-17T04:53:45.653Z,100013.37
2019-03-17T04:56:16.820Z,100011.98
2019-03-17T04:58:48.232Z,100027.73
2019-03-17T05:01:19.431Z,100027.98
2019-03-17T05:03:50.596Z,100028.79
2019-03-17T05:06:22.249Z,100028.79
2019-03-17T05:08:55.281Z,100045.14
2019-03-17T05:11:26.619Z,100046.87
2019-03-17T05:14:03.491Z,100047.77
2019-03-17T05:16:35.909Z,100058.13
2019-03-17T05:19:07.378Z,100062.31
2019-03-17T05:21:38.716Z,100072.79
2019-03-17T05:24:09.996Z,100065.18
2019-03-17T05:26:41.410Z,100078.13
2019-03-17T05:29:15.137Z,100083.41
2019-03-17T05:31:55.338Z,100094.28
2019-03-17T05:34:26.546Z,100100.51
2019-03-17T05:37:06.077Z,100102.81
2019-03-17T05:39:30.865Z,100103.38
2019-03-17T05:42:02.078Z,100104.81
2019-03-17T05:44:33.247Z,100113.39
2019-03-17T05:47:04.703Z,100121.89
2019-03-17T05:49:36.215Z,100114.74
2019-03-17T05:52:07.496Z,100122.08
2019-03-17T05:54:38.843Z,100122.28
2019-03-17T05:57:10.270Z,100119.55
2019-03-17T05:59:41.515Z,100123.23
2019-03-17T06:02:12.880Z,100142.28
2019-03-17T06:04:44.374Z,100144.58
2019-03-17T06:07:18.963Z,100142.72
2019-03-17T06:09:49.287Z,100152.13
2019-03-17T06:12:20.508Z,100153.38
2019-03-17T06:14:51.570Z,100158.50
2019-03-17T06:17:22.865Z,100156.70
2019-03-17T06:19:54.218Z,100163.72
2019-03-17T06:22:25.360Z,100165.38
2019-03-17T06:24:56.637Z,100168.66
2019-03-17T06:27:27.959Z,100172.67
2019-03-17T06:29:59.258Z,100171.56
2019-03-17T06:32:34.729Z,100179.29
2019-03-17T06:35:06.370Z,100176.61
2019-03-17T06:37:54.762Z,100182.48
2019-03-17T06:40:26.281Z,100185.34
2019-03-17T06:42:57.693Z,100185.09
2019-03-17T06:45:30.653Z,100186.16
2019-03-17T06:48:03.330Z,100191.41
2019-03-17T06:50:34.705Z,100193.50
2019-03-17T06:53:07.879Z,100196.13
2019-03-17T06:55:40.336Z,100204.94
2019-03-17T06:58:11.559Z,100200.91
2019-03-17T07:00:42.652Z,100207.25
2019-03-17T07:03:14.583Z,100205.28
2019-03-17T07:05:47.526Z,100206.61
2019-03-17T07:08:19.180Z,100207.19
2019-03-17T07:10:51.636Z,100222.73
2019-03-17T07:13:23.033Z,100224.31
2019-03-17T07:15:54.693Z,100224.70
2019-03-17T07:18:26.370Z,100231.34
2019-03-17T07:20:57.875Z,100233.42
2019-03-17T07:23:29.757Z,100232.45
2019-03-17T07:26:02.802Z,100239.67
2019-03-17T07:28:35.616Z,100238.09
2019-03-17T07:31:12.379Z,100240.39
2019-03-17T07:33:43.814Z,100249.05
2019-03-17T07:36:17.948Z,100255.16
2019-03-17T07:38:50.430Z,100253.05
2019-03-17T07:41:22.041Z,100249.77
2019-03-17T07:43:53.918Z,100248.27
2019-03-17T07:46:25.850Z,100250.55
2019-03-17T07:48:59.717Z,100255.93
2019-03-17T07:51:33.634Z,100257.28
2019-03-17T07:54:05.305Z,100258.56
2019-03-17T07:59:40.946Z,100259.12
2019-03-17T08:02:12.461Z,100268.22
2019-03-17T08:04:46.295Z,100272.55
2019-03-17T08:07:19.475Z,100271.35
2019-03-17T08:09:52.961Z,100285.29
2019-03-17T08:12:24.242Z,100275.41
2019-03-17T08:14:57.738Z,100284.78
2019-03-17T08:17:28.875Z,100288.22
2019-03-17T08:20:00.753Z,100294.05
2019-03-17T08:22:32.129Z,100291.28
2019-03-17T08:25:04.148Z,100295.90
2019-03-17T08:27:39.898Z,100299.45
2019-03-17T08:30:16.743Z,100299.86
2019-03-17T08:32:48.378Z,100295.63
2019-03-17T08:35:20.342Z,100316.13
2019-03-17T08:37:52.466Z,100312.17
2019-03-17T08:40:23.636Z,100315.59
2019-03-17T08:42:55.146Z,100321.75
2019-03-17T08:45:28.204Z,100318.68
2019-03-17T08:47:59.414Z,100325.31
2019-03-17T08:50:31.049Z,100332.21
2019-03-17T08:53:02.961Z,100324.31
2019-03-17T08:55:34.298Z,100329.84
2019-03-17T08:58:06.780Z,100335.20
2019-03-17T09:00:38.165Z,100336.84
2019-03-17T09:03:09.689Z,100338.83
2019-03-17T09:05:42.067Z,100340.34
2019-03-17T09:08:13.365Z,100348.73
2019-03-17T09:10:44.574Z,100348.34
2019-03-17T09:13:15.856Z,100351.81
2019-03-17T09:15:47.179Z,100363.38
2019-03-17T09:18:18.349Z,100357.02
2019-03-17T09:20:49.762Z,100362.06
2019-03-17T09:23:21.462Z,100358.59
2019-03-17T09:25:52.626Z,100374.56
2019-03-17T09:28:23.812Z,100377.84
2019-03-17T09:30:55.205Z,100373.25
2019-03-17T09:33:26.476Z,100377.42
2019-03-17T09:35:57.778Z,100375.87
2019-03-17T09:38:29.246Z,100380.63
2019-03-17T09:41:00.424Z,100385.62
2019-03-17T09:43:32.797Z,100394.58
2019-03-17T09:46:04.265Z,100398.63
2019-03-17T09:48:35.490Z,100395.28
2019-03-17T09:51:07.243Z,100404.86
2019-03-17T09:53:38.695Z,100397.48
2019-03-17T09:56:10.186Z,100409.16
2019-03-17T09:58:41.191Z,100394.78
2019-03-17T10:01:12.161Z,100416.40
2019-03-17T10:03:43.408Z,100403.52
2019-03-17T10:06:14.779Z,100403.94
2019-03-17T10:08:59.142Z,100414.64
2019-03-17T10:11:19.861Z,100406.79
2019-03-17T10:13:51.103Z,100418.12
2019-03-17T10:16:27.042Z,100414.73
2019-03-17T10:18:58.439Z,100423.16
2019-03-17T10:21:37.778Z,100426.60
2019-03-17T10:24:15.478Z,100420.88
2019-03-17T10:26:49.875Z,100433.21
2019-03-17T10:29:21.041Z,100427.41
2019-03-17T10:31:52.618Z,100433.09
2019-03-17T10:34:23.896Z,100437.80
2019-03-17T10:36:55.183Z,100434.32
2019-03-17T10:39:27.213Z,100436.48
2019-03-17T10:41:58.375Z,100433.31
2019-03-17T10:44:29.530Z,100442.50
2019-03-17T10:47:01.633Z,100453.19
2019-03-17T10:49:32.964Z,100456.52
2019-03-17T10:52:04.157Z,100449.75
2019-03-17T10:54:35.497Z,100442.34
2019-03-17T10:57:06.708Z,100450.21
2019-03-17T10:59:37.924Z,100461.94
2019-03-17T11:02:09.150Z,100457.31
2019-03-17T11:04:40.275Z,100462.48
2019-03-17T11:07:11.459Z,100463.80
2019-03-17T11:09:42.878Z,100468.62
2019-03-17T11:12:13.981Z,100463.72
2019-03-17T11:14:45.068Z,100471.16
2019-03-17T11:17:16.155Z,100475.02
2019-03-17T11:19:47.400Z,100479.01
2019-03-17T11:22:22.097Z,100469.19
2019-03-17T11:24:53.466Z,100484.42
2019-03-17T11:27:25.065Z,100482.33
2019-03-17T11:29:56.872Z,100483.03
2019-03-17T11:32:28.359Z,100487.56
2019-03-17T11:34:59.814Z,100485.51
2019-03-17T11:37:31.321Z,100481.71
2019-03-17T11:40:02.776Z,100487.25
2019-03-17T11:42:34.128Z,100484.77
2019-03-17T11:45:08.347Z,100494.81
2019-03-17T11:47:40.050Z,100500.18
2019-03-17T11:50:19.268Z,100508.05
2019-03-17T11:52:51.076Z,100511.16
2019-03-17T11:55:22.391Z,100515.84
2019-03-17T11:57:56.022Z,100522.28
2019-03-17T12:00:27.804Z,100522.70
2019-03-17T12:02:59.227Z,100532.69
2019-03-17T12:05:30.573Z,100533.33
2019-03-17T12:08:05.353Z,100540.96
2019-03-17T12:10:37.214Z,100543.38
2019-03-17T12:13:10.791Z,100547.71
2019-03-17T12:15:53.320Z,100542.41
2019-03-17T12:18:25.790Z,100547.53
2019-03-17T12:20:58.498Z,100554.24
2019-03-17T12:23:30.171Z,100558.04
2019-03-17T12:26:03.769Z,100561.62
2019-03-17T12:28:37.118Z,100558.44
2019-03-17T12:31:09.111Z,100563.19
2019-03-17T12:33:41.031Z,100566.48
2019-03-17T12:36:14.781Z,100565.95
2019-03-17T12:38:50.893Z,100580.95
2019-03-17T12:41:29.567Z,100568.64
2019-03-17T12:44:11.922Z,100572.13
2019-03-17T12:46:45.293Z,100569.58
2019-03-17T12:49:17.669Z,100573.62
2019-03-17T12:51:49.115Z,100574.89
2019-03-17T12:54:21.096Z,100578.42
2019-03-17T12:56:52.493Z,100581.52
2019-03-17T12:59:24.088Z,100584.53
2019-03-17T13:01:56.355Z,100586.19
2019-03-17T13:04:28.270Z,100585.02
2019-03-17T13:06:59.589Z,100591.77
2019-03-17T13:09:30.867Z,100590.75
2019-03-17T13:12:02.332Z,100594.34
2019-03-17T13:14:33.514Z,100598.64
2019-03-17T13:17:05.165Z,100597.83
2019-03-17T13:19:36.438Z,100596.08
2019-03-17T13:22:08.880Z,100608.25
2019-03-17T13:24:41.775Z,100612.95
2019-03-17T13:27:15.432Z,100618.75
2019-03-17T13:29:46.733Z,100612.17
2019-03-17T13:32:17.981Z,100611.57
2019-03-17T13:34:49.227Z,100613.03
2019-03-17T13:37:22.554Z,100625.67
2019-03-17T13:39:53.746Z,100627.92
2019-03-17T13:42:24.932Z,100627.45
2019-03-17T13:44:59.010Z,100628.13
2019-03-17T13:47:30.909Z,100638.69
2019-03-17T13:50:02.540Z,100634.56
2019-03-17T13:52:35.740Z,100643.23
2019-03-17T13:55:07.152Z,100633.63
2019-03-17T13:57:38.673Z,100646.86
2019-03-17T14:00:13.460Z,100647.39
2019-03-17T14:02:45.131Z,100648.53
2019-03-17T14:05:16.547Z,100650.09
2019-03-17T14:07:47.971Z,100650.80
2019-03-17T14:10:19.563Z,100656.12
2019-03-17T14:12:52.884Z,100662.45
2019-03-17T14:15:24.298Z,100674.19
2019-03-17T14:17:55.442Z,100679.16
2019-03-17T14:20:26.486Z,100673.61
2019-03-17T14:22:57.810Z,100675.69
2019-03-17T14:25:36.394Z,100689.86
2019-03-17T14:28:10.929Z,100690.14
2019-03-17T14:30:44.898Z,100697.02
2019-03-17T14:33:16.031Z,100699.14
2019-03-17T14:35:47.156Z,100711.03
2019-03-17T14:38:18.573Z,100717.14
2019-03-17T14:40:53.890Z,100721.87
2019-03-17T14:43:22.697Z,100717.47
2019-03-17T14:45:53.943Z,100728.73
2019-03-17T14:48:25.423Z,100727.81
2019-03-17T14:50:59.322Z,100731.10
2019-03-17T14:53:30.626Z,100735.37
2019-03-17T14:56:01.826Z,100732.52
2019-03-17T14:58:52.309Z,100743.19
2019-03-17T15:01:20.871Z,100743.72
2019-03-17T15:03:52.039Z,100749.83
2019-03-17T15:06:24.371Z,100743.59
2019-03-17T15:08:57.806Z,100755.15
2019-03-17T15:11:45.456Z,100753.77
2019-03-17T15:14:26.340Z,100763.98
2019-03-17T15:16:58.799Z,100766.16
2019-03-17T15:19:30.251Z,100771.14
2019-03-17T15:22:02.381Z,100777.29
2019-03-17T15:24:33.668Z,100775.91
2019-03-17T15:27:04.967Z,100775.91
2019-03-17T15:29:36.302Z,100782.61
2019-03-17T15:32:08.618Z,100788.03
2019-03-17T15:34:39.622Z,100794.14
2019-03-17T15:37:10.741Z,100808.55
2019-03-17T15:39:41.929Z,100811.24
2019-03-17T15:42:12.990Z,100814.36
2019-03-17T15:44:44.443Z,100819.22
2019-03-17T15:47:15.629Z,100819.98
2019-03-17T15:49:46.836Z,100825.05
2019-03-17T15:52:18.085Z,100828.27
2019-03-17T15:54:50.301Z,100833.52
2019-03-17T15:57:22.423Z,100828.78
2019-03-17T15:59:57.175Z,100838.44
2019-03-17T16:02:28.553Z,100837.91
2019-03-17T16:05:00.354Z,100841.80
2019-03-17T16:07:41.807Z,100847.45
2019-03-17T16:10:14.281Z,100848.77
2019-03-17T16:12:45.723Z,100852.19
2019-03-17T16:15:17.026Z,100856.77
2019-03-17T16:17:48.425Z,100849.61
2019-03-17T16:20:29.557Z,100862.81
2019-03-17T16:23:10.254Z,100867.73
2019-03-17T16:25:41.473Z,100864.80
2019-03-17T16:28:12.722Z,100868.20
2019-03-17T16:30:43.940Z,100877.30
2019-03-17T16:33:15.437Z,100879.02
2019-03-17T16:35:47.142Z,100883.28
2019-03-17T16:38:18.471Z,100887.10
2019-03-17T16:40:49.722Z,100897.52
2019-03-17T16:43:22.533Z,100892.94
2019-03-17T16:45:54.110Z,100897.42
2019-03-17T16:48:25.522Z,100902.94
2019-03-17T16:50:57.703Z,100906.81
2019-03-17T16:53:29.759Z,100908.96
2019-03-17T16:56:03.165Z,100916.13
2019-03-17T16:58:34.761Z,100921.84
2019-03-17T17:01:06.256Z,100920.27
2019-03-17T17:03:38.538Z,100924.13
2019-03-17T17:06:09.714Z,100923.21
2019-03-17T17:08:41.361Z,100927.81
2019-03-17T17:11:12.948Z,100933.45
2019-03-17T17:13:44.326Z,100936.03
2019-03-17T17:16:15.501Z,100934.45
2019-03-17T17:18:47.050Z,100947.33
2019-03-17T17:21:18.339Z,100949.75
2019-03-17T17:23:49.572Z,100951.13
2019-03-17T17:26:20.737Z,100950.27
2019-03-17T17:28:53.286Z,100955.84
2019-03-17T17:31:24.914Z,100953.41
2019-03-17T17:33:58.696Z,100961.99
2019-03-17T17:36:30.010Z,100959.36
2019-03-17T17:39:01.341Z,100959.50
2019-03-17T17:41:33.994Z,100964.70
2019-03-17T17:44:05.270Z,100962.18
2019-03-17T17:46:36.643Z,100965.28
2019-03-17T17:49:09.877Z,100966.25
2019-03-17T17:51:41.325Z,100975.04
2019-03-17T17:54:12.623Z,100968.61
2019-03-17T17:56:44.672Z,100969.30
2019-03-17T17:59:16.186Z,100967.85
2019-03-17T18:01:47.963Z,100968.44
2019-03-17T18:04:19.241Z,100968.48
2019-03-17T18:06:50.690Z,100970.22
2019-03-17T18:09:21.959Z,100973.75
2019-03-17T18:11:53.532Z,100976.56
2019-03-17T18:14:24.841Z,100986.17
2019-03-17T18:16:57.072Z,100986.25
2019-03-17T18:19:29.859Z,100994.17
2019-03-17T18:22:01.193Z,100999.59
2019-03-17T18:24:41.812Z,101001.86
2019-03-17T18:27:14.434Z,101001.86
2019-03-17T18:29:45.763Z,101008.81
2019-03-17T18:32:17.618Z,101017.30
2019-03-17T18:34:50.604Z,101009.88
2019-03-17T18:37:24.091Z,101011.36
2019-03-17T18:39:57.946Z,101017.01
2019-03-17T18:42:33.363Z,101016.44
2019-03-17T18:45:04.404Z,101023.52
2019-03-17T18:47:36.124Z,101021.30
2019-03-17T18:50:19.390Z,101030.00
2019-03-17T18:52:43.492Z,101033.95
2019-03-17T18:55:15.382Z,101035.42
2019-03-17T18:57:47.065Z,101042.19
2019-03-17T19:00:21.596Z,101039.00
2019-03-17T19:02:52.926Z,101041.63
2019-03-17T19:05:25.344Z,101048.98
2019-03-17T19:07:56.706Z,101046.80
2019-03-17T19:10:28.210Z,101052.06
2019-03-17T19:12:59.668Z,101050.30
2019-03-17T19:15:31.299Z,101047.66
2019-03-17T19:18:05.729Z,101048.38
2019-03-17T19:20:36.958Z,101052.52
2019-03-17T19:23:08.463Z,101050.73
2019-03-17T19:25:39.814Z,101050.59
2019-03-17T19:28:11.833Z,101057.55
2019-03-17T19:30:44.155Z,101050.59
2019-03-17T19:33:15.405Z,101054.01
2019-03-17T19:35:48.281Z,101053.45
2019-03-17T19:38:20.144Z,101049.63
2019-03-17T19:40:51.774Z,101050.27
2019-03-17T19:43:23.058Z,101053.45
2019-03-17T19:45:54.304Z,101049.47
2019-03-17T19:48:25.624Z,101047.19
2019-03-17T19:50:56.912Z,101038.56
2019-03-17T19:53:28.196Z,101034.00
2019-03-17T19:55:59.714Z,101046.84
2019-03-17T19:58:31.157Z,101039.77
2019-03-17T20:01:05.619Z,101049.42
2019-03-17T20:03:36.975Z,101047.52
2019-03-17T20:06:10.552Z,101052.98
2019-03-17T20:08:41.431Z,101054.15
2019-03-17T20:11:13.036Z,101058.23
2019-03-17T20:13:44.235Z,101057.94
2019-03-17T20:16:15.501Z,101058.41
2019-03-17T20:18:46.865Z,101059.97
2019-03-17T20:21:18.190Z,101058.77
2019-03-17T20:23:49.436Z,101066.03
2019-03-17T20:26:20.640Z,101071.37
2019-03-17T20:28:52.565Z,101069.90
2019-03-17T20:31:23.989Z,101073.27
2019-03-17T20:33:55.394Z,101073.98
2019-03-17T20:36:26.916Z,101072.88
2019-03-17T20:38:58.134Z,101074.69
2019-03-17T20:41:29.435Z,101071.52
2019-03-17T20:44:01.046Z,101067.50
2019-03-17T20:46:32.624Z,101064.81
2019-03-17T20:49:03.945Z,101067.94
2019-03-17T20:51:35.470Z,101074.14
2019-03-17T20:54:06.924Z,101072.49
2019-03-17T20:56:38.226Z,101077.02
2019-03-17T20:59:09.421Z,101078.93
2019-03-17T21:01:40.990Z,101078.88
2019-03-17T21:04:13.273Z,101084.58
2019-03-17T21:06:45.034Z,101081.00
2019-03-17T21:09:16.196Z,101085.09
2019-03-17T21:11:47.772Z,101090.83
2019-03-17T21:14:19.019Z,101088.20
2019-03-17T21:16:50.194Z,101085.52
2019-03-17T21:19:21.552Z,101086.97
2019-03-17T21:21:52.913Z,101092.73
2019-03-17T21:24:24.503Z,101092.05
2019-03-17T21:26:55.866Z,101092.36
2019-03-17T21:29:27.104Z,101096.15
2019-03-17T21:31:58.288Z,101096.34
2019-03-17T21:34:29.600Z,101108.94
2019-03-17T21:37:00.813Z,101098.02
2019-03-17T21:39:32.084Z,101102.98
2019-03-17T21:42:05.485Z,101105.19
2019-03-17T21:44:39.167Z,101109.52
2019-03-17T21:47:15.840Z,101114.31
2019-03-17T21:49:58.636Z,101112.18
2019-03-17T21:52:32.963Z,101111.27
2019-03-17T21:55:06.668Z,101116.52
2019-03-17T21:57:43.320Z,101119.56
2019-03-17T22:00:19.102Z,101122.59
2019-03-17T22:02:58.845Z,101128.68
2019-03-17T22:05:30.522Z,101125.66
2019-03-17T22:08:07.413Z,101131.39
2019-03-17T22:10:41.308Z,101135.31
2019-03-17T22:13:13.116Z,101139.81
2019-03-17T22:15:46.269Z,101139.44
2019-03-17T22:18:18.750Z,101141.24
2019-03-17T22:20:50.470Z,101142.55
2019-03-17T22:23:22.322Z,101143.86
2019-03-17T22:26:00.732Z,101141.36
2019-03-17T22:28:34.739Z,101140.91
2019-03-17T22:31:06.139Z,101143.94
2019-03-17T22:33:37.413Z,101157.06
2019-03-17T22:36:08.741Z,101161.70
2019-03-17T22:38:40.031Z,101163.80
2019-03-17T22:41:11.211Z,101168.28
2019-03-17T22:43:44.363Z,101172.28
2019-03-17T22:46:15.762Z,101172.70
2019-03-17T22:48:48.041Z,101179.09
2019-03-17T22:51:19.407Z,101176.80
2019-03-17T22:53:51.005Z,101178.23
2019-03-17T22:56:22.297Z,101189.63
2019-03-17T22:58:53.638Z,101185.89
2019-03-17T23:01:24.943Z,101178.34
2019-03-17T23:03:57.308Z,101177.92
2019-03-17T23:06:29.833Z,101188.68
2019-03-17T23:09:01.201Z,101194.67
2019-03-17T23:11:33.147Z,101197.84
2019-03-17T23:14:05.930Z,101192.91
2019-03-17T23:16:37.177Z,101200.83
2019-03-17T23:19:08.434Z,101200.14
2019-03-17T23:21:39.532Z,101194.78
2019-03-17T23:24:10.829Z,101197.84
2019-03-17T23:26:42.281Z,101207.99
2019-03-17T23:29:13.696Z,101199.79
2019-03-17T23:31:46.691Z,101196.83
2019-03-17T23:34:18.395Z,101201.13
2019-03-17T23:36:49.813Z,101199.42
2019-03-17T23:39:21.165Z,101194.23
2019-03-17T23:41:53.754Z,101206.37
2019-03-17T23:44:25.199Z,101209.84
2019-03-17T23:46:56.813Z,101204.72
2019-03-17T23:49:28.979Z,101213.94
2019-03-17T23:52:00.289Z,101212.34
2019-03-17T23:54:31.619Z,101222.36
2019-03-17T23:57:03.974Z,101222.36
2019-03-17T23:59:35.488Z,101227.25
